sensor_id;sensor_type;location;lat;lon;timestamp;pressure;altitude;pressure_sealevel;temperature;humidity
63306;BME280;50735;52.060;1.248;2024-02-28T00:01:56;101627.72;;;4.65;56.90
63306;BME280;50735;52.060;1.248;2024-02-28T00:04:28;101627.33;;;4.66;56.85
63306;BME280;50735;52.060;1.248;2024-02-28T00:06:59;101626.80;;;5.13;56.80
63306;BME280;50735;52.060;1.248;2024-02-28T00:09:31;101630.89;;;4.75;56.79
63306;BME280;50735;52.060;1.248;2024-02-28T00:12:03;101632.33;;;4.81;56.69
63306;BME280;50735;52.060;1.248;2024-02-28T00:14:35;101637.72;;;4.83;56.64
63306;BME280;50735;52.060;1.248;2024-02-28T00:17:07;101633.03;;;4.83;56.47
63306;BME280;50735;52.060;1.248;2024-02-28T00:19:38;101628.47;;;4.84;56.71
63306;BME280;50735;52.060;1.248;2024-02-28T00:22:10;101629.09;;;4.86;56.56
63306;BME280;50735;52.060;1.248;2024-02-28T00:24:42;101626.56;;;4.89;56.66
63306;BME280;50735;52.060;1.248;2024-02-28T00:27:14;101629.95;;;4.90;56.61
63306;BME280;50735;52.060;1.248;2024-02-28T00:29:46;101632.87;;;5.05;56.55
63306;BME280;50735;52.060;1.248;2024-02-28T00:32:18;101631.71;;;4.83;56.71
63306;BME280;50735;52.060;1.248;2024-02-28T00:34:49;101626.78;;;4.84;56.86
63306;BME280;50735;52.060;1.248;2024-02-28T00:37:21;101628.67;;;4.78;56.96
63306;BME280;50735;52.060;1.248;2024-02-28T00:39:54;101632.64;;;4.83;56.98
63306;BME280;50735;52.060;1.248;2024-02-28T00:42:25;101638.19;;;4.80;57.00
63306;BME280;50735;52.060;1.248;2024-02-28T00:44:57;101638.86;;;4.75;57.19
63306;BME280;50735;52.060;1.248;2024-02-28T00:47:30;101633.97;;;4.78;57.33
63306;BME280;50735;52.060;1.248;2024-02-28T00:50:02;101634.63;;;4.73;57.58
63306;BME280;50735;52.060;1.248;2024-02-28T00:52:33;101634.58;;;4.84;57.90
63306;BME280;50735;52.060;1.248;2024-02-28T00:55:06;101636.71;;;4.63;58.25
63306;BME280;50735;52.060;1.248;2024-02-28T00:57:38;101639.13;;;4.82;58.15
63306;BME280;50735;52.060;1.248;2024-02-28T01:00:11;101641.21;;;4.77;58.47
63306;BME280;50735;52.060;1.248;2024-02-28T01:02:43;101640.02;;;4.64;58.41
63306;BME280;50735;52.060;1.248;2024-02-28T01:05:15;101644.07;;;4.68;58.30
63306;BME280;50735;52.060;1.248;2024-02-28T01:07:47;101647.42;;;5.09;58.41
63306;BME280;50735;52.060;1.248;2024-02-28T01:10:18;101648.15;;;4.71;58.43
63306;BME280;50735;52.060;1.248;2024-02-28T01:12:50;101649.86;;;4.67;58.70
63306;BME280;50735;52.060;1.248;2024-02-28T01:15:22;101650.22;;;4.93;58.59
63306;BME280;50735;52.060;1.248;2024-02-28T01:17:54;101648.96;;;4.76;58.49
63306;BME280;50735;52.060;1.248;2024-02-28T01:20:26;101645.27;;;4.63;59.31
63306;BME280;50735;52.060;1.248;2024-02-28T01:22:58;101638.93;;;4.64;59.32
63306;BME280;50735;52.060;1.248;2024-02-28T01:25:30;101636.71;;;4.68;59.22
63306;BME280;50735;52.060;1.248;2024-02-28T01:28:04;101630.59;;;5.14;59.08
63306;BME280;50735;52.060;1.248;2024-02-28T01:30:36;101627.58;;;4.80;59.45
63306;BME280;50735;52.060;1.248;2024-02-28T01:33:08;101626.66;;;4.64;59.64
63306;BME280;50735;52.060;1.248;2024-02-28T01:35:40;101624.99;;;4.60;60.00
63306;BME280;50735;52.060;1.248;2024-02-28T01:38:12;101623.40;;;4.59;60.21
63306;BME280;50735;52.060;1.248;2024-02-28T01:40:44;101628.49;;;4.70;59.68
63306;BME280;50735;52.060;1.248;2024-02-28T01:43:17;101628.98;;;4.75;60.65
63306;BME280;50735;52.060;1.248;2024-02-28T01:45:50;101628.03;;;4.37;61.36
63306;BME280;50735;52.060;1.248;2024-02-28T01:48:21;101631.09;;;4.32;61.66
63306;BME280;50735;52.060;1.248;2024-02-28T01:50:54;101626.59;;;4.45;60.97
63306;BME280;50735;52.060;1.248;2024-02-28T01:53:26;101625.54;;;4.53;60.89
63306;BME280;50735;52.060;1.248;2024-02-28T01:55:58;101624.18;;;4.55;60.86
63306;BME280;50735;52.060;1.248;2024-02-28T01:58:30;101625.56;;;4.98;60.47
63306;BME280;50735;52.060;1.248;2024-02-28T02:01:03;101628.07;;;4.59;60.63
63306;BME280;50735;52.060;1.248;2024-02-28T02:03:35;101629.28;;;4.99;60.85
63306;BME280;50735;52.060;1.248;2024-02-28T02:06:07;101632.12;;;4.65;60.62
63306;BME280;50735;52.060;1.248;2024-02-28T02:08:39;101628.33;;;4.93;60.25
63306;BME280;50735;52.060;1.248;2024-02-28T02:11:13;101629.60;;;4.74;60.65
63306;BME280;50735;52.060;1.248;2024-02-28T02:13:49;101628.71;;;4.64;60.93
63306;BME280;50735;52.060;1.248;2024-02-28T02:16:21;101624.26;;;4.62;60.98
63306;BME280;50735;52.060;1.248;2024-02-28T02:18:53;101622.14;;;4.66;60.70
63306;BME280;50735;52.060;1.248;2024-02-28T02:21:30;101621.56;;;4.74;60.53
63306;BME280;50735;52.060;1.248;2024-02-28T02:24:02;101620.31;;;4.80;60.40
63306;BME280;50735;52.060;1.248;2024-02-28T02:26:35;101615.84;;;4.93;60.79
63306;BME280;50735;52.060;1.248;2024-02-28T02:29:06;101614.36;;;4.76;60.56
63306;BME280;50735;52.060;1.248;2024-02-28T02:31:38;101614.52;;;5.07;61.15
63306;BME280;50735;52.060;1.248;2024-02-28T02:34:10;101618.74;;;5.11;60.80
63306;BME280;50735;52.060;1.248;2024-02-28T02:36:42;101626.46;;;4.76;60.89
63306;BME280;50735;52.060;1.248;2024-02-28T02:39:14;101626.64;;;4.74;60.69
63306;BME280;50735;52.060;1.248;2024-02-28T02:41:46;101627.62;;;4.72;60.81
63306;BME280;50735;52.060;1.248;2024-02-28T02:44:18;101629.96;;;5.10;60.95
63306;BME280;50735;52.060;1.248;2024-02-28T02:46:50;101627.23;;;4.68;60.89
63306;BME280;50735;52.060;1.248;2024-02-28T02:49:21;101626.61;;;5.06;61.25
63306;BME280;50735;52.060;1.248;2024-02-28T02:51:53;101622.37;;;4.92;62.04
63306;BME280;50735;52.060;1.248;2024-02-28T02:54:25;101627.26;;;4.75;61.58
63306;BME280;50735;52.060;1.248;2024-02-28T02:56:57;101624.55;;;4.62;61.19
63306;BME280;50735;52.060;1.248;2024-02-28T02:59:29;101623.87;;;4.85;61.07
63306;BME280;50735;52.060;1.248;2024-02-28T03:02:01;101627.04;;;5.09;60.95
63306;BME280;50735;52.060;1.248;2024-02-28T03:04:32;101627.09;;;4.61;61.53
63306;BME280;50735;52.060;1.248;2024-02-28T03:07:04;101626.84;;;4.49;61.73
63306;BME280;50735;52.060;1.248;2024-02-28T03:09:36;101626.92;;;4.60;61.91
63306;BME280;50735;52.060;1.248;2024-02-28T03:12:08;101629.79;;;4.30;62.79
63306;BME280;50735;52.060;1.248;2024-02-28T03:14:40;101630.88;;;4.29;62.49
63306;BME280;50735;52.060;1.248;2024-02-28T03:17:11;101633.04;;;4.71;62.40
63306;BME280;50735;52.060;1.248;2024-02-28T03:19:43;101637.98;;;4.57;62.52
63306;BME280;50735;52.060;1.248;2024-02-28T03:22:15;101645.43;;;4.38;62.69
63306;BME280;50735;52.060;1.248;2024-02-28T03:24:47;101643.61;;;4.40;62.47
63306;BME280;50735;52.060;1.248;2024-02-28T03:27:19;101644.05;;;4.53;62.48
63306;BME280;50735;52.060;1.248;2024-02-28T03:29:51;101638.35;;;4.33;63.39
63306;BME280;50735;52.060;1.248;2024-02-28T03:32:23;101632.07;;;4.13;63.20
63306;BME280;50735;52.060;1.248;2024-02-28T03:34:55;101623.66;;;4.59;62.99
63306;BME280;50735;52.060;1.248;2024-02-28T03:37:26;101614.67;;;4.32;62.43
63306;BME280;50735;52.060;1.248;2024-02-28T03:39:58;101607.97;;;4.61;62.02
63306;BME280;50735;52.060;1.248;2024-02-28T03:42:30;101607.06;;;4.81;61.76
63306;BME280;50735;52.060;1.248;2024-02-28T03:45:03;101614.01;;;4.35;62.77
63306;BME280;50735;52.060;1.248;2024-02-28T03:47:35;101617.77;;;4.46;63.25
63306;BME280;50735;52.060;1.248;2024-02-28T03:50:07;101620.37;;;4.47;62.75
63306;BME280;50735;52.060;1.248;2024-02-28T03:52:39;101621.95;;;4.12;62.62
63306;BME280;50735;52.060;1.248;2024-02-28T03:55:11;101626.02;;;4.53;62.57
63306;BME280;50735;52.060;1.248;2024-02-28T03:57:47;101627.88;;;4.53;62.26
63306;BME280;50735;52.060;1.248;2024-02-28T04:00:19;101634.07;;;4.54;62.41
63306;BME280;50735;52.060;1.248;2024-02-28T04:02:51;101639.71;;;4.56;62.32
63306;BME280;50735;52.060;1.248;2024-02-28T04:05:23;101640.50;;;4.46;62.42
63306;BME280;50735;52.060;1.248;2024-02-28T04:07:55;101641.71;;;4.32;63.25
63306;BME280;50735;52.060;1.248;2024-02-28T04:10:27;101644.98;;;4.46;63.12
63306;BME280;50735;52.060;1.248;2024-02-28T04:12:59;101640.06;;;4.22;63.47
63306;BME280;50735;52.060;1.248;2024-02-28T04:15:32;101645.30;;;4.42;63.16
63306;BME280;50735;52.060;1.248;2024-02-28T04:18:04;101650.30;;;4.28;63.07
63306;BME280;50735;52.060;1.248;2024-02-28T04:20:36;101652.50;;;4.35;62.62
63306;BME280;50735;52.060;1.248;2024-02-28T04:23:08;101653.73;;;4.41;62.55
63306;BME280;50735;52.060;1.248;2024-02-28T04:25:40;101654.60;;;4.43;62.12
63306;BME280;50735;52.060;1.248;2024-02-28T04:28:12;101653.05;;;4.25;62.21
63306;BME280;50735;52.060;1.248;2024-02-28T04:30:43;101654.36;;;4.29;61.92
63306;BME280;50735;52.060;1.248;2024-02-28T04:33:15;101651.65;;;4.53;61.88
63306;BME280;50735;52.060;1.248;2024-02-28T04:35:47;101644.94;;;4.53;61.86
63306;BME280;50735;52.060;1.248;2024-02-28T04:38:19;101642.20;;;4.55;61.80
63306;BME280;50735;52.060;1.248;2024-02-28T04:40:51;101641.42;;;4.57;61.74
63306;BME280;50735;52.060;1.248;2024-02-28T04:43:23;101639.76;;;4.59;61.68
63306;BME280;50735;52.060;1.248;2024-02-28T04:45:55;101633.60;;;4.60;61.65
63306;BME280;50735;52.060;1.248;2024-02-28T04:48:27;101628.93;;;4.40;61.62
63306;BME280;50735;52.060;1.248;2024-02-28T04:51:00;101626.00;;;4.40;61.50
63306;BME280;50735;52.060;1.248;2024-02-28T04:53:32;101620.50;;;4.61;61.43
63306;BME280;50735;52.060;1.248;2024-02-28T04:56:04;101620.39;;;4.20;61.31
63306;BME280;50735;52.060;1.248;2024-02-28T04:58:36;101618.77;;;4.75;61.28
63306;BME280;50735;52.060;1.248;2024-02-28T05:01:08;101627.91;;;4.36;61.33
63306;BME280;50735;52.060;1.248;2024-02-28T05:03:40;101633.56;;;4.58;61.44
63306;BME280;50735;52.060;1.248;2024-02-28T05:06:12;101630.13;;;4.59;61.39
63306;BME280;50735;52.060;1.248;2024-02-28T05:08:44;101642.56;;;4.35;61.25
63306;BME280;50735;52.060;1.248;2024-02-28T05:11:16;101647.84;;;4.53;61.14
63306;BME280;50735;52.060;1.248;2024-02-28T05:13:48;101644.42;;;4.49;61.00
63306;BME280;50735;52.060;1.248;2024-02-28T05:16:20;101633.73;;;4.62;60.94
63306;BME280;50735;52.060;1.248;2024-02-28T05:18:52;101630.16;;;4.42;61.05
63306;BME280;50735;52.060;1.248;2024-02-28T05:21:23;101634.64;;;4.41;61.13
63306;BME280;50735;52.060;1.248;2024-02-28T05:23:55;101633.26;;;4.37;61.04
63306;BME280;50735;52.060;1.248;2024-02-28T05:26:27;101633.52;;;4.09;60.93
63306;BME280;50735;52.060;1.248;2024-02-28T05:28:59;101633.62;;;4.27;60.82
63306;BME280;50735;52.060;1.248;2024-02-28T05:31:32;101633.25;;;4.24;60.48
63306;BME280;50735;52.060;1.248;2024-02-28T05:34:04;101629.61;;;4.14;60.77
63306;BME280;50735;52.060;1.248;2024-02-28T05:36:36;101628.67;;;4.09;60.91
63306;BME280;50735;52.060;1.248;2024-02-28T05:39:07;101633.93;;;4.02;61.14
63306;BME280;50735;52.060;1.248;2024-02-28T05:41:40;101641.97;;;3.98;61.25
63306;BME280;50735;52.060;1.248;2024-02-28T05:44:11;101645.86;;;3.93;61.58
63306;BME280;50735;52.060;1.248;2024-02-28T05:46:43;101648.85;;;3.90;61.69
63306;BME280;50735;52.060;1.248;2024-02-28T05:49:15;101650.30;;;3.91;61.72
63306;BME280;50735;52.060;1.248;2024-02-28T05:51:47;101653.29;;;3.92;61.66
63306;BME280;50735;52.060;1.248;2024-02-28T05:54:18;101649.08;;;4.12;61.61
63306;BME280;50735;52.060;1.248;2024-02-28T05:56:50;101654.89;;;3.96;61.26
63306;BME280;50735;52.060;1.248;2024-02-28T05:59:22;101664.54;;;4.12;61.45
63306;BME280;50735;52.060;1.248;2024-02-28T06:01:54;101648.94;;;4.11;61.57
63306;BME280;50735;52.060;1.248;2024-02-28T06:04:26;101644.53;;;4.13;61.57
63306;BME280;50735;52.060;1.248;2024-02-28T06:06:58;101643.69;;;3.94;61.53
63306;BME280;50735;52.060;1.248;2024-02-28T06:09:30;101638.52;;;3.93;61.57
63306;BME280;50735;52.060;1.248;2024-02-28T06:12:02;101638.90;;;3.92;61.26
63306;BME280;50735;52.060;1.248;2024-02-28T06:14:34;101638.86;;;3.91;61.45
63306;BME280;50735;52.060;1.248;2024-02-28T06:17:06;101639.30;;;3.89;61.54
63306;BME280;50735;52.060;1.248;2024-02-28T06:19:38;101641.94;;;3.89;61.40
63306;BME280;50735;52.060;1.248;2024-02-28T06:22:10;101645.58;;;4.06;61.44
63306;BME280;50735;52.060;1.248;2024-02-28T06:24:42;101648.14;;;3.86;61.49
63306;BME280;50735;52.060;1.248;2024-02-28T06:27:15;101648.05;;;3.86;66.19
63306;BME280;50735;52.060;1.248;2024-02-28T06:29:47;101653.10;;;4.13;63.19
63306;BME280;50735;52.060;1.248;2024-02-28T06:32:19;101646.39;;;4.11;62.37
63306;BME280;50735;52.060;1.248;2024-02-28T06:34:52;101641.56;;;3.92;62.12
63306;BME280;50735;52.060;1.248;2024-02-28T06:37:23;101641.51;;;3.90;61.98
63306;BME280;50735;52.060;1.248;2024-02-28T06:39:56;101637.63;;;4.07;61.97
63306;BME280;50735;52.060;1.248;2024-02-28T06:42:27;101637.30;;;3.89;61.95
63306;BME280;50735;52.060;1.248;2024-02-28T06:44:59;101635.82;;;3.88;61.93
63306;BME280;50735;52.060;1.248;2024-02-28T06:47:31;101633.34;;;3.88;61.88
63306;BME280;50735;52.060;1.248;2024-02-28T06:50:04;101638.67;;;3.89;61.94
63306;BME280;50735;52.060;1.248;2024-02-28T06:52:37;101637.24;;;3.90;62.04
63306;BME280;50735;52.060;1.248;2024-02-28T06:55:09;101643.33;;;3.92;62.06
63306;BME280;50735;52.060;1.248;2024-02-28T06:57:42;101646.09;;;4.12;61.93
63306;BME280;50735;52.060;1.248;2024-02-28T07:00:14;101655.80;;;3.72;62.05
63306;BME280;50735;52.060;1.248;2024-02-28T07:02:46;101665.99;;;4.06;61.91
63306;BME280;50735;52.060;1.248;2024-02-28T07:05:19;101664.23;;;3.87;62.11
63306;BME280;50735;52.060;1.248;2024-02-28T07:07:51;101665.03;;;4.08;62.18
63306;BME280;50735;52.060;1.248;2024-02-28T07:10:23;101665.73;;;4.10;62.20
63306;BME280;50735;52.060;1.248;2024-02-28T07:12:54;101667.40;;;3.95;62.20
63306;BME280;50735;52.060;1.248;2024-02-28T07:15:26;101667.74;;;3.98;62.22
63306;BME280;50735;52.060;1.248;2024-02-28T07:17:58;101669.06;;;4.00;62.08
63306;BME280;50735;52.060;1.248;2024-02-28T07:20:30;101667.36;;;4.17;62.11
63306;BME280;50735;52.060;1.248;2024-02-28T07:23:02;101667.67;;;4.01;62.12
63306;BME280;50735;52.060;1.248;2024-02-28T07:25:34;101666.94;;;4.21;62.05
63306;BME280;50735;52.060;1.248;2024-02-28T07:28:06;101665.00;;;4.04;62.09
63306;BME280;50735;52.060;1.248;2024-02-28T07:30:38;101658.48;;;4.08;61.81
63306;BME280;50735;52.060;1.248;2024-02-28T07:33:10;101650.61;;;4.25;61.51
63306;BME280;50735;52.060;1.248;2024-02-28T07:35:45;101653.15;;;4.20;61.86
63306;BME280;50735;52.060;1.248;2024-02-28T07:38:18;101649.20;;;4.01;62.07
63306;BME280;50735;52.060;1.248;2024-02-28T07:40:50;101644.87;;;4.03;61.89
63306;BME280;50735;52.060;1.248;2024-02-28T07:43:21;101642.25;;;4.01;61.94
63306;BME280;50735;52.060;1.248;2024-02-28T07:45:53;101641.71;;;3.97;61.86
63306;BME280;50735;52.060;1.248;2024-02-28T07:48:25;101644.45;;;4.08;62.12
63306;BME280;50735;52.060;1.248;2024-02-28T07:50:57;101648.25;;;4.06;62.25
63306;BME280;50735;52.060;1.248;2024-02-28T07:53:29;101652.76;;;4.12;62.69
63306;BME280;50735;52.060;1.248;2024-02-28T07:56:02;101662.16;;;3.98;62.20
63306;BME280;50735;52.060;1.248;2024-02-28T07:58:34;101661.04;;;4.18;62.77
63306;BME280;50735;52.060;1.248;2024-02-28T08:01:06;101660.23;;;4.04;62.53
63306;BME280;50735;52.060;1.248;2024-02-28T08:03:38;101667.47;;;4.31;62.44
63306;BME280;50735;52.060;1.248;2024-02-28T08:06:10;101669.18;;;4.19;62.37
63306;BME280;50735;52.060;1.248;2024-02-28T08:08:44;101673.62;;;4.27;62.24
63306;BME280;50735;52.060;1.248;2024-02-28T08:11:16;101662.06;;;4.30;62.23
63306;BME280;50735;52.060;1.248;2024-02-28T08:13:47;101665.23;;;4.12;62.26
63306;BME280;50735;52.060;1.248;2024-02-28T08:16:20;101665.03;;;4.29;62.49
63306;BME280;50735;52.060;1.248;2024-02-28T08:18:52;101668.47;;;4.35;62.21
63306;BME280;50735;52.060;1.248;2024-02-28T08:21:24;101670.53;;;4.40;62.43
63306;BME280;50735;52.060;1.248;2024-02-28T08:23:56;101676.27;;;4.47;62.22
63306;BME280;50735;52.060;1.248;2024-02-28T08:26:28;101677.82;;;4.61;62.24
63306;BME280;50735;52.060;1.248;2024-02-28T08:28:59;101679.62;;;4.33;62.46
63306;BME280;50735;52.060;1.248;2024-02-28T08:31:31;101686.34;;;4.27;62.98
63306;BME280;50735;52.060;1.248;2024-02-28T08:34:03;101690.09;;;4.03;63.22
63306;BME280;50735;52.060;1.248;2024-02-28T08:36:35;101697.85;;;4.25;63.36
63306;BME280;50735;52.060;1.248;2024-02-28T08:39:07;101703.72;;;3.70;64.24
63306;BME280;50735;52.060;1.248;2024-02-28T08:41:39;101708.84;;;4.01;64.46
63306;BME280;50735;52.060;1.248;2024-02-28T08:44:11;101703.46;;;3.85;64.34
63306;BME280;50735;52.060;1.248;2024-02-28T08:46:43;101705.46;;;4.08;64.55
63306;BME280;50735;52.060;1.248;2024-02-28T08:49:15;101702.82;;;4.21;64.46
63306;BME280;50735;52.060;1.248;2024-02-28T08:51:47;101696.36;;;3.86;64.17
63306;BME280;50735;52.060;1.248;2024-02-28T08:54:19;101698.92;;;4.30;64.56
63306;BME280;50735;52.060;1.248;2024-02-28T08:56:51;101697.76;;;4.28;64.60
63306;BME280;50735;52.060;1.248;2024-02-28T08:59:23;101696.62;;;4.10;64.23
63306;BME280;50735;52.060;1.248;2024-02-28T09:01:55;101702.29;;;4.29;64.68
63306;BME280;50735;52.060;1.248;2024-02-28T09:04:27;101699.25;;;4.37;64.44
63306;BME280;50735;52.060;1.248;2024-02-28T09:06:59;101692.81;;;4.00;64.72
63306;BME280;50735;52.060;1.248;2024-02-28T09:09:31;101690.55;;;4.22;64.50
63306;BME280;50735;52.060;1.248;2024-02-28T09:12:03;101683.95;;;4.53;64.57
63306;BME280;50735;52.060;1.248;2024-02-28T09:14:35;101680.87;;;4.46;64.28
63306;BME280;50735;52.060;1.248;2024-02-28T09:17:07;101677.63;;;4.41;63.91
63306;BME280;50735;52.060;1.248;2024-02-28T09:19:39;101673.75;;;4.60;64.13
63306;BME280;50735;52.060;1.248;2024-02-28T09:22:10;101670.61;;;4.80;63.99
63306;BME280;50735;52.060;1.248;2024-02-28T09:24:43;101669.39;;;4.38;64.45
63306;BME280;50735;52.060;1.248;2024-02-28T09:27:15;101663.36;;;4.41;64.47
63306;BME280;50735;52.060;1.248;2024-02-28T09:29:47;101659.91;;;4.89;64.06
63306;BME280;50735;52.060;1.248;2024-02-28T09:32:18;101651.33;;;4.69;64.26
63306;BME280;50735;52.060;1.248;2024-02-28T09:34:50;101650.36;;;4.78;64.23
63306;BME280;50735;52.060;1.248;2024-02-28T09:37:22;101651.95;;;4.61;64.30
63306;BME280;50735;52.060;1.248;2024-02-28T09:39:54;101650.36;;;4.61;64.15
63306;BME280;50735;52.060;1.248;2024-02-28T09:42:26;101652.43;;;4.56;64.49
63306;BME280;50735;52.060;1.248;2024-02-28T09:45:00;101652.48;;;4.67;64.32
63306;BME280;50735;52.060;1.248;2024-02-28T09:47:32;101653.18;;;4.73;64.46
63306;BME280;50735;52.060;1.248;2024-02-28T09:50:05;101651.85;;;4.87;64.07
63306;BME280;50735;52.060;1.248;2024-02-28T09:52:37;101649.26;;;5.22;63.85
63306;BME280;50735;52.060;1.248;2024-02-28T09:55:10;101653.30;;;4.96;63.56
63306;BME280;50735;52.060;1.248;2024-02-28T09:57:43;101652.48;;;5.10;63.62
63306;BME280;50735;52.060;1.248;2024-02-28T10:00:20;101652.31;;;5.50;63.13
63306;BME280;50735;52.060;1.248;2024-02-28T10:02:53;101654.51;;;5.58;62.87
63306;BME280;50735;52.060;1.248;2024-02-28T10:05:25;101657.70;;;5.54;62.89
63306;BME280;50735;52.060;1.248;2024-02-28T10:07:58;101661.04;;;5.23;63.18
63306;BME280;50735;52.060;1.248;2024-02-28T10:10:30;101657.81;;;5.16;63.12
63306;BME280;50735;52.060;1.248;2024-02-28T10:13:02;101650.01;;;5.22;63.94
63306;BME280;50735;52.060;1.248;2024-02-28T10:15:34;101646.28;;;5.22;63.73
63306;BME280;50735;52.060;1.248;2024-02-28T10:18:06;101640.07;;;5.22;63.45
63306;BME280;50735;52.060;1.248;2024-02-28T10:20:39;101644.00;;;5.38;63.64
63306;BME280;50735;52.060;1.248;2024-02-28T10:23:11;101640.23;;;5.50;63.63
63306;BME280;50735;52.060;1.248;2024-02-28T10:25:44;101636.94;;;5.38;63.71
63306;BME280;50735;52.060;1.248;2024-02-28T10:28:16;101635.03;;;5.22;63.81
63306;BME280;50735;52.060;1.248;2024-02-28T10:30:48;101630.59;;;5.54;63.71
63306;BME280;50735;52.060;1.248;2024-02-28T10:33:20;101628.99;;;5.61;63.58
63306;BME280;50735;52.060;1.248;2024-02-28T10:35:52;101628.53;;;5.69;63.78
63306;BME280;50735;52.060;1.248;2024-02-28T10:38:26;101638.28;;;5.78;63.17
63306;BME280;50735;52.060;1.248;2024-02-28T10:40:59;101644.97;;;5.58;63.28
63306;BME280;50735;52.060;1.248;2024-02-28T10:43:32;101646.90;;;5.75;63.16
63306;BME280;50735;52.060;1.248;2024-02-28T10:46:06;101641.50;;;5.90;62.95
63306;BME280;50735;52.060;1.248;2024-02-28T10:48:39;101639.42;;;6.11;63.05
63306;BME280;50735;52.060;1.248;2024-02-28T10:51:15;101637.88;;;5.76;63.32
63306;BME280;50735;52.060;1.248;2024-02-28T10:53:49;101636.04;;;5.49;63.88
63306;BME280;50735;52.060;1.248;2024-02-28T10:56:26;101634.10;;;5.71;64.11
63306;BME280;50735;52.060;1.248;2024-02-28T10:59:00;101632.44;;;5.68;64.50
63306;BME280;50735;52.060;1.248;2024-02-28T11:01:34;101628.01;;;5.56;64.62
63306;BME280;50735;52.060;1.248;2024-02-28T11:04:07;101624.94;;;5.70;64.74
63306;BME280;50735;52.060;1.248;2024-02-28T11:06:56;101630.09;;;5.74;64.54
63306;BME280;50735;52.060;1.248;2024-02-28T11:09:28;101637.30;;;5.56;65.02
63306;BME280;50735;52.060;1.248;2024-02-28T11:12:01;101634.57;;;5.39;66.46
63306;BME280;50735;52.060;1.248;2024-02-28T11:14:35;101632.79;;;5.85;65.97
63306;BME280;50735;52.060;1.248;2024-02-28T11:17:07;101633.37;;;5.55;65.65
63306;BME280;50735;52.060;1.248;2024-02-28T11:19:40;101627.23;;;5.84;65.69
63306;BME280;50735;52.060;1.248;2024-02-28T11:22:12;101623.71;;;5.72;65.26
63306;BME280;50735;52.060;1.248;2024-02-28T11:24:44;101625.13;;;5.66;65.27
63306;BME280;50735;52.060;1.248;2024-02-28T11:27:16;101625.11;;;5.76;64.87
63306;BME280;50735;52.060;1.248;2024-02-28T11:29:49;101621.35;;;5.98;64.87
63306;BME280;50735;52.060;1.248;2024-02-28T11:32:21;101612.04;;;5.84;64.84
63306;BME280;50735;52.060;1.248;2024-02-28T11:34:53;101607.61;;;5.99;65.32
63306;BME280;50735;52.060;1.248;2024-02-28T11:37:24;101605.17;;;6.06;65.21
63306;BME280;50735;52.060;1.248;2024-02-28T11:39:58;101606.02;;;6.14;65.14
63306;BME280;50735;52.060;1.248;2024-02-28T11:42:30;101595.30;;;6.67;64.81
63306;BME280;50735;52.060;1.248;2024-02-28T11:45:03;101580.96;;;6.75;63.99
63306;BME280;50735;52.060;1.248;2024-02-28T11:47:35;101571.91;;;7.15;61.63
63306;BME280;50735;52.060;1.248;2024-02-28T11:50:07;101568.96;;;7.35;61.23
63306;BME280;50735;52.060;1.248;2024-02-28T11:52:39;101563.49;;;7.44;60.74
63306;BME280;50735;52.060;1.248;2024-02-28T11:55:11;101557.93;;;7.47;60.45
63306;BME280;50735;52.060;1.248;2024-02-28T11:57:43;101550.43;;;7.64;60.65
63306;BME280;50735;52.060;1.248;2024-02-28T12:00:15;101546.72;;;7.72;59.81
63306;BME280;50735;52.060;1.248;2024-02-28T12:02:47;101542.28;;;7.73;59.84
63306;BME280;50735;52.060;1.248;2024-02-28T12:05:19;101537.18;;;7.95;59.72
63306;BME280;50735;52.060;1.248;2024-02-28T12:07:52;101536.06;;;7.76;59.70
63306;BME280;50735;52.060;1.248;2024-02-28T12:10:25;101529.83;;;7.97;59.58
63306;BME280;50735;52.060;1.248;2024-02-28T12:12:59;101526.16;;;7.83;59.94
63306;BME280;50735;52.060;1.248;2024-02-28T12:15:31;101522.95;;;7.71;60.14
63306;BME280;50735;52.060;1.248;2024-02-28T12:18:08;101520.95;;;7.61;59.83
63306;BME280;50735;52.060;1.248;2024-02-28T12:20:39;101525.47;;;7.33;59.97
63306;BME280;50735;52.060;1.248;2024-02-28T12:23:12;101519.19;;;7.53;60.61
63306;BME280;50735;52.060;1.248;2024-02-28T12:25:44;101513.37;;;7.54;60.60
63306;BME280;50735;52.060;1.248;2024-02-28T12:28:15;101507.82;;;7.49;60.31
63306;BME280;50735;52.060;1.248;2024-02-28T12:30:47;101502.93;;;7.75;60.25
63306;BME280;50735;52.060;1.248;2024-02-28T12:33:19;101499.51;;;7.69;59.92
63306;BME280;50735;52.060;1.248;2024-02-28T12:35:51;101498.36;;;7.56;61.30
63306;BME280;50735;52.060;1.248;2024-02-28T12:38:22;101495.75;;;7.78;60.94
63306;BME280;50735;52.060;1.248;2024-02-28T12:40:54;101486.20;;;7.83;60.29
63306;BME280;50735;52.060;1.248;2024-02-28T12:43:27;101491.55;;;7.85;60.39
63306;BME280;50735;52.060;1.248;2024-02-28T12:45:59;101486.95;;;7.93;60.77
63306;BME280;50735;52.060;1.248;2024-02-28T12:48:31;101485.59;;;7.55;60.90
63306;BME280;50735;52.060;1.248;2024-02-28T12:51:11;101483.47;;;8.16;60.72
63306;BME280;50735;52.060;1.248;2024-02-28T12:53:43;101480.12;;;8.17;59.96
63306;BME280;50735;52.060;1.248;2024-02-28T12:56:15;101478.02;;;8.44;59.71
63306;BME280;50735;52.060;1.248;2024-02-28T12:58:46;101479.54;;;7.98;60.24
63306;BME280;50735;52.060;1.248;2024-02-28T13:01:18;101477.82;;;7.94;60.48
63306;BME280;50735;52.060;1.248;2024-02-28T13:03:51;101473.55;;;8.15;60.96
63306;BME280;50735;52.060;1.248;2024-02-28T13:06:23;101474.66;;;7.96;61.25
63306;BME280;50735;52.060;1.248;2024-02-28T13:08:54;101474.49;;;7.47;61.77
63306;BME280;50735;52.060;1.248;2024-02-28T13:11:26;101468.55;;;7.74;61.88
63306;BME280;50735;52.060;1.248;2024-02-28T13:13:58;101467.78;;;7.52;61.19
63306;BME280;50735;52.060;1.248;2024-02-28T13:16:30;101454.81;;;7.96;60.57
63306;BME280;50735;52.060;1.248;2024-02-28T13:19:02;101447.25;;;8.00;60.60
63306;BME280;50735;52.060;1.248;2024-02-28T13:21:34;101437.45;;;7.79;60.84
63306;BME280;50735;52.060;1.248;2024-02-28T13:24:06;101426.98;;;7.92;61.00
63306;BME280;50735;52.060;1.248;2024-02-28T13:26:38;101424.99;;;7.71;60.96